Barretville, Tennessee
Current Conditions -  °F | °C
As of 2:15 AM on Saturday 25 Oct 2014 (Local Time) from KNQA Reporting Station
Clear Clear  
Wind Chill: 52°   Ceiling: Unl
Heat Index: 52°   Visibility: 2.5mi
Dew Point: 52°   Wind: 3mph
Humidity: 100%   Direction: 130°SE
Pressure: 30.08"   Gusts: NA
Location:  35.3343°N, 89.9316°W
Report Text: KNQA 250715Z AUTO 13003KT 2 1/2SM CLR 11/11 A3008 RMK
Loading
Personal Weather Stations






























Interactive Weather Map
Tropical Storm Tracking
New forecast layout! Learn more

10-Day Weather Forecast

Advertisements
Track Severe Weather on mobile